createdAt,value
2022-09-23T00:01:16.635Z,1.08
2022-09-23T00:03:46.630Z,1.35
2022-09-23T00:06:16.971Z,1.10
2022-09-23T00:08:45.464Z,0.98
2022-09-23T00:11:16.484Z,1.27
2022-09-23T00:13:46.729Z,1.48
2022-09-23T00:18:44.240Z,1.30
2022-09-23T00:21:14.685Z,1.13
2022-09-23T00:23:44.324Z,0.98
2022-09-23T00:26:15.901Z,1.35
2022-09-23T00:28:44.993Z,0.88
2022-09-23T00:31:15.707Z,1.17
2022-09-23T00:33:44.368Z,1.48
2022-09-23T00:36:15.803Z,0.95
2022-09-23T00:38:44.661Z,1.20
2022-09-23T00:41:15.324Z,1.25
2022-09-23T00:43:46.130Z,1.10
2022-09-23T00:46:19.035Z,1.08
2022-09-23T00:48:49.454Z,1.48
2022-09-23T00:51:25.139Z,0.95
2022-09-23T00:53:55.368Z,1.23
2022-09-23T00:58:59.535Z,1.13
2022-09-23T01:01:28.096Z,1.00
2022-09-23T01:03:57.782Z,0.90
2022-09-23T01:06:26.460Z,1.10
2022-09-23T01:08:55.022Z,1.40
2022-09-23T01:11:38.501Z,1.35
2022-09-23T01:14:20.026Z,1.10
2022-09-23T01:16:59.576Z,1.33
2022-09-23T01:19:47.727Z,1.23
2022-09-23T01:22:24.382Z,1.30
2022-09-23T01:25:17.981Z,1.20
2022-09-23T01:28:12.525Z,1.50
2022-09-23T01:30:51.690Z,1.42
2022-09-23T01:33:25.775Z,1.47
2022-09-23T01:36:08.431Z,1.58
2022-09-23T01:38:45.730Z,1.17
2022-09-23T01:41:31.085Z,1.25
2022-09-23T01:44:05.048Z,0.88
2022-09-23T01:46:42.186Z,1.17
2022-09-23T01:49:18.242Z,1.00
2022-09-23T01:51:53.629Z,1.20
2022-09-23T01:54:27.346Z,1.10
2022-09-23T01:57:01.792Z,1.00
2022-09-23T01:59:36.252Z,1.40
2022-09-23T02:02:11.651Z,1.30
2022-09-23T02:04:48.306Z,1.20
2022-09-23T02:07:21.536Z,1.33
2022-09-23T02:09:56.091Z,1.17
2022-09-23T02:12:29.193Z,1.42
2022-09-23T02:15:03.853Z,1.20
2022-09-23T02:17:39.749Z,0.95
2022-09-23T02:20:09.545Z,1.00
2022-09-23T02:22:42.274Z,1.20
2022-09-23T02:25:12.601Z,1.40
2022-09-23T02:27:47.666Z,0.88
2022-09-23T02:30:20.563Z,1.08
2022-09-23T02:32:55.960Z,1.20
2022-09-23T02:35:33.035Z,0.90
2022-09-23T02:38:12.009Z,0.82
2022-09-23T02:40:50.670Z,1.50
2022-09-23T02:43:28.032Z,1.65
2022-09-23T02:45:57.480Z,1.45
2022-09-23T02:48:31.895Z,1.38
2022-09-23T02:51:02.440Z,1.63
2022-09-23T02:53:33.945Z,1.08
2022-09-23T02:56:02.462Z,1.65
2022-09-23T02:58:35.551Z,1.30
2022-09-23T03:01:16.734Z,1.27
2022-09-23T03:03:54.014Z,1.50
2022-09-23T03:06:46.109Z,1.50
2022-09-23T03:09:20.827Z,1.27
2022-09-23T03:11:58.632Z,1.48
2022-09-23T03:14:34.252Z,1.10
2022-09-23T03:17:07.101Z,1.10
2022-09-23T03:19:44.629Z,1.77
2022-09-23T03:22:18.648Z,1.30
2022-09-23T03:24:53.769Z,1.40
2022-09-23T03:27:25.963Z,1.30
2022-09-23T03:29:56.050Z,0.95
2022-09-23T03:32:28.017Z,1.30
2022-09-23T03:35:01.290Z,1.08
2022-09-23T03:37:35.374Z,1.33
2022-09-23T03:40:09.999Z,1.20
2022-09-23T03:42:39.883Z,1.25
2022-09-23T03:45:13.106Z,1.23
2022-09-23T03:47:44.696Z,1.20
2022-09-23T03:50:17.398Z,1.25
2022-09-23T03:52:46.522Z,1.45
2022-09-23T03:55:18.771Z,1.45
2022-09-23T03:57:48.472Z,1.35
2022-09-23T04:00:20.654Z,1.50
2022-09-23T04:02:49.865Z,1.55
2022-09-23T04:05:19.769Z,1.50
2022-09-23T04:07:48.404Z,1.67
2022-09-23T04:10:16.517Z,1.10
2022-09-23T04:12:44.550Z,0.80
2022-09-23T04:15:12.588Z,1.23
2022-09-23T04:17:40.974Z,0.98
2022-09-23T04:20:10.183Z,1.25
2022-09-23T04:22:39.608Z,1.00
2022-09-23T04:25:08.838Z,0.77
2022-09-23T04:27:37.926Z,0.70
2022-09-23T04:30:07.115Z,1.60
2022-09-23T04:32:35.245Z,0.93
2022-09-23T04:35:03.262Z,0.85
2022-09-23T04:37:31.547Z,1.52
2022-09-23T04:40:01.021Z,0.95
2022-09-23T04:42:30.114Z,1.63
2022-09-23T04:44:58.158Z,1.33
2022-09-23T04:47:26.292Z,1.33
2022-09-23T04:49:59.055Z,1.33
2022-09-23T04:52:30.116Z,1.20
2022-09-23T04:55:00.873Z,1.55
2022-09-23T04:57:31.928Z,2.08
2022-09-23T05:00:00.152Z,1.20
2022-09-23T05:02:28.553Z,1.33
2022-09-23T05:04:56.773Z,1.27
2022-09-23T05:07:26.320Z,1.77
2022-09-23T05:09:55.379Z,1.88
2022-09-23T05:12:24.893Z,1.80
2022-09-23T05:14:53.103Z,2.03
2022-09-23T05:17:22.540Z,2.72
2022-09-23T05:19:50.545Z,2.35
2022-09-23T05:22:19.758Z,2.42
2022-09-23T05:24:48.045Z,2.20
2022-09-23T05:27:19.333Z,2.60
2022-09-23T05:29:49.558Z,2.42
2022-09-23T05:34:45.945Z,3.10
2022-09-23T05:37:14.337Z,2.97
2022-09-23T05:39:43.530Z,3.53
2022-09-23T05:42:12.490Z,3.58
2022-09-23T05:44:40.647Z,3.80
2022-09-23T05:47:10.332Z,3.60
2022-09-23T05:49:58.739Z,3.78
2022-09-23T05:52:26.936Z,3.45
2022-09-23T05:54:55.017Z,3.35
2022-09-23T05:57:23.161Z,3.78
2022-09-23T05:59:51.180Z,3.55
2022-09-23T06:02:20.760Z,3.42
2022-09-23T06:04:48.764Z,3.38
2022-09-23T06:07:16.879Z,4.10
2022-09-23T06:09:45.575Z,3.72
2022-09-23T06:12:14.328Z,4.43
2022-09-23T06:14:42.612Z,4.50
2022-09-23T06:17:11.634Z,5.20
2022-09-23T06:19:41.227Z,5.50
2022-09-23T06:22:09.201Z,4.82
2022-09-23T06:24:37.220Z,5.43
2022-09-23T06:27:05.452Z,4.95
2022-09-23T06:29:33.787Z,4.22
2022-09-23T06:32:02.617Z,4.55
2022-09-23T06:34:32.626Z,4.93
2022-09-23T06:37:16.491Z,4.95
2022-09-23T06:39:46.676Z,4.35
2022-09-23T06:42:15.954Z,5.15
2022-09-23T06:44:44.217Z,5.03
2022-09-23T06:47:12.228Z,4.65
2022-09-23T06:49:40.201Z,4.45
2022-09-23T06:52:09.769Z,4.05
2022-09-23T06:54:38.149Z,4.72
2022-09-23T06:57:06.654Z,4.03
2022-09-23T06:59:35.765Z,3.65
2022-09-23T07:02:04.196Z,3.40
2022-09-23T07:04:33.684Z,3.35
2022-09-23T07:07:03.008Z,3.97
2022-09-23T07:09:32.754Z,3.50
2022-09-23T07:12:02.281Z,3.53
2022-09-23T07:14:31.099Z,2.70
2022-09-23T07:17:00.086Z,2.60
2022-09-23T07:19:28.263Z,2.15
2022-09-23T07:21:57.217Z,2.33
2022-09-23T07:24:25.400Z,1.80
2022-09-23T07:26:55.212Z,2.15
2022-09-23T07:29:23.713Z,2.00
2022-09-23T07:31:52.370Z,1.90
2022-09-23T07:34:22.050Z,1.63
2022-09-23T07:36:50.596Z,1.70
2022-09-23T07:39:20.376Z,1.48
2022-09-23T07:41:49.957Z,1.92
2022-09-23T07:44:21.934Z,1.70
2022-09-23T07:46:57.464Z,1.52
2022-09-23T07:49:25.808Z,1.50
2022-09-23T07:51:54.106Z,1.40
2022-09-23T07:54:22.298Z,1.70
2022-09-23T07:56:50.360Z,1.48
2022-09-23T07:59:20.151Z,1.52
2022-09-23T08:01:50.653Z,1.52
2022-09-23T08:04:24.132Z,1.15
2022-09-23T08:06:54.730Z,1.23
2022-09-23T08:09:25.393Z,1.48
2022-09-23T08:11:54.127Z,1.30
2022-09-23T08:14:24.384Z,1.00
2022-09-23T08:16:53.385Z,1.10
2022-09-23T08:19:21.704Z,1.00
2022-09-23T08:21:52.425Z,1.27
2022-09-23T08:24:23.751Z,1.20
2022-09-23T08:26:54.441Z,1.30
2022-09-23T08:29:26.898Z,1.10
2022-09-23T08:31:55.678Z,1.38
2022-09-23T08:34:25.134Z,0.90
2022-09-23T08:36:53.524Z,0.90
2022-09-23T08:39:23.618Z,1.13
2022-09-23T08:42:06.886Z,1.00
2022-09-23T08:44:47.919Z,1.10
2022-09-23T08:47:22.019Z,0.95
2022-09-23T08:49:58.572Z,1.33
2022-09-23T08:52:34.242Z,1.00
2022-09-23T08:55:04.910Z,0.70
2022-09-23T08:57:44.185Z,0.93
2022-09-23T09:00:22.044Z,1.07
2022-09-23T09:02:51.588Z,1.10
2022-09-23T09:05:27.350Z,0.95
2022-09-23T09:07:59.521Z,0.82
2022-09-23T09:10:35.231Z,1.30
2022-09-23T09:13:07.664Z,1.13
2022-09-23T09:15:43.570Z,1.00
2022-09-23T09:18:19.867Z,0.80
2022-09-23T09:20:54.945Z,1.10
2022-09-23T09:23:25.617Z,1.08
2022-09-23T09:25:58.555Z,0.88
2022-09-23T09:28:34.039Z,1.05
2022-09-23T09:31:12.196Z,1.00
2022-09-23T09:33:45.981Z,1.38
2022-09-23T09:36:24.983Z,0.88
2022-09-23T09:38:54.534Z,1.60
2022-09-23T09:41:24.758Z,1.33
2022-09-23T09:46:48.171Z,1.67
2022-09-23T09:49:26.622Z,1.60
2022-09-23T09:52:14.317Z,1.30
2022-09-23T09:54:44.725Z,1.40
2022-09-23T09:57:22.159Z,1.60
2022-09-23T09:59:50.734Z,1.40
2022-09-23T10:02:29.386Z,1.33
2022-09-23T10:05:06.306Z,1.73
2022-09-23T10:07:36.813Z,1.20
2022-09-23T10:10:32.235Z,1.30
2022-09-23T10:13:16.103Z,1.50
2022-09-23T10:15:46.033Z,1.50
2022-09-23T10:18:21.087Z,1.05
2022-09-23T10:20:50.667Z,1.40
2022-09-23T10:23:24.112Z,1.17
2022-09-23T10:26:00.199Z,1.58
2022-09-23T10:28:43.211Z,1.38
2022-09-23T10:31:14.260Z,0.85
2022-09-23T10:33:50.012Z,0.95
2022-09-23T10:36:18.929Z,1.15
2022-09-23T10:38:50.685Z,1.30
2022-09-23T10:41:45.951Z,1.08
2022-09-23T10:44:45.631Z,1.13
2022-09-23T10:47:24.293Z,0.98
2022-09-23T10:50:12.033Z,0.95
2022-09-23T10:52:50.233Z,1.20
2022-09-23T10:55:32.074Z,0.93
2022-09-23T10:58:21.674Z,1.17
2022-09-23T11:01:05.692Z,1.10
2022-09-23T11:04:03.457Z,1.02
2022-09-23T11:06:49.096Z,0.93
2022-09-23T11:09:32.296Z,0.60
2022-09-23T11:12:13.458Z,0.90
2022-09-23T11:14:52.378Z,0.68
2022-09-23T11:17:44.349Z,0.85
2022-09-23T11:20:28.874Z,0.80
2022-09-23T11:23:19.273Z,0.85
2022-09-23T11:26:19.169Z,0.98
2022-09-23T11:29:14.622Z,0.70
2022-09-23T11:31:58.819Z,0.40
2022-09-23T11:35:05.099Z,0.30
2022-09-23T11:37:39.910Z,0.55
2022-09-23T11:40:18.117Z,0.50
2022-09-23T11:42:55.402Z,0.50
2022-09-23T11:45:29.535Z,0.47
2022-09-23T11:48:04.332Z,0.50
2022-09-23T11:50:38.881Z,0.30
2022-09-23T11:53:14.389Z,0.40
2022-09-23T11:55:57.495Z,0.32
2022-09-23T11:58:30.896Z,0.30
2022-09-23T12:01:04.427Z,0.32
2022-09-23T12:03:45.777Z,0.40
2022-09-23T12:06:20.345Z,0.55
2022-09-23T12:08:53.250Z,0.40
2022-09-23T12:11:32.060Z,0.40
2022-09-23T12:14:14.459Z,0.60
2022-09-23T12:17:07.685Z,0.40
2022-09-23T12:20:04.092Z,0.30
2022-09-23T12:22:49.847Z,0.50
2022-09-23T12:25:47.255Z,0.50
2022-09-23T12:28:23.510Z,0.35
2022-09-23T12:30:54.972Z,0.20
2022-09-23T12:33:26.518Z,0.28
2022-09-23T12:35:56.150Z,0.20
2022-09-23T12:38:30.905Z,0.15
2022-09-23T12:40:59.084Z,0.40
2022-09-23T12:43:34.600Z,0.30
2022-09-23T12:46:20.890Z,0.15
2022-09-23T12:49:02.951Z,0.43
2022-09-23T12:51:32.173Z,0.40
2022-09-23T12:54:22.745Z,0.22
2022-09-23T12:57:12.080Z,0.20
2022-09-23T13:00:14.777Z,0.70
2022-09-23T13:03:13.270Z,0.30
2022-09-23T13:06:05.768Z,0.40
2022-09-23T13:08:39.001Z,0.30
2022-09-23T13:11:18.006Z,0.28
2022-09-23T13:13:49.907Z,0.47
2022-09-23T13:16:27.241Z,0.40
2022-09-23T13:18:57.025Z,0.20
2022-09-23T13:22:13.658Z,0.22
2022-09-23T13:24:46.608Z,0.25
2022-09-23T13:27:20.891Z,0.10
2022-09-23T13:29:54.793Z,0.20
2022-09-23T13:32:30.015Z,0.10
2022-09-23T13:35:01.958Z,0.20
2022-09-23T13:37:40.132Z,0.30
2022-09-23T13:40:10.863Z,0.30
2022-09-23T13:42:41.993Z,0.15
2022-09-23T13:45:17.064Z,0.17
2022-09-23T13:47:55.522Z,0.28
2022-09-23T13:50:25.620Z,0.52
2022-09-23T13:55:32.350Z,0.20
2022-09-23T13:58:02.589Z,0.13
2022-09-23T14:00:36.476Z,0.40
2022-09-23T14:03:18.050Z,0.10
2022-09-23T14:05:49.465Z,0.10
2022-09-23T14:08:17.530Z,0.40
2022-09-23T14:10:47.200Z,0.40
2022-09-23T14:13:25.927Z,0.52
2022-09-23T14:15:57.749Z,0.20
2022-09-23T14:18:34.463Z,0.35
2022-09-23T14:21:06.414Z,0.50
2022-09-23T14:23:48.469Z,0.08
2022-09-23T14:26:21.658Z,0.10
2022-09-23T14:28:59.977Z,0.30
2022-09-23T14:31:33.061Z,0.38
2022-09-23T14:34:02.671Z,0.20
2022-09-23T14:36:55.222Z,0.30
2022-09-23T14:39:23.988Z,0.45
2022-09-23T14:41:52.551Z,0.25
2022-09-23T14:44:25.172Z,0.20
2022-09-23T14:46:58.278Z,0.30
2022-09-23T14:49:30.117Z,0.20
2022-09-23T14:52:04.220Z,0.30
2022-09-23T14:54:36.756Z,0.30
2022-09-23T14:57:32.197Z,0.10
2022-09-23T15:00:03.974Z,0.10
2022-09-23T15:02:35.232Z,0.32
2022-09-23T15:05:19.730Z,0.17
2022-09-23T15:08:01.531Z,0.20
2022-09-23T15:10:33.002Z,0.35
2022-09-23T15:13:06.673Z,0.30
2022-09-23T15:15:37.672Z,0.43
2022-09-23T15:18:08.385Z,0.52
2022-09-23T15:20:37.988Z,0.40
2022-09-23T15:23:06.014Z,0.28
2022-09-23T15:25:36.033Z,0.50
2022-09-23T15:28:18.856Z,0.25
2022-09-23T15:30:47.036Z,0.30
2022-09-23T15:33:16.648Z,0.30
2022-09-23T15:35:50.197Z,0.30
2022-09-23T15:38:18.916Z,0.20
2022-09-23T15:40:47.441Z,0.10
2022-09-23T15:43:21.920Z,0.00
2022-09-23T15:45:53.371Z,0.05
2022-09-23T15:48:24.052Z,0.32
2022-09-23T15:50:54.877Z,0.40
2022-09-23T15:53:25.875Z,0.35
2022-09-23T15:55:54.214Z,0.05
2022-09-23T15:58:26.237Z,0.00
2022-09-23T16:00:57.268Z,0.28
2022-09-23T16:03:28.609Z,0.00
2022-09-23T16:06:02.433Z,0.08
2022-09-23T16:08:33.027Z,0.10
2022-09-23T16:11:01.434Z,0.17
2022-09-23T16:13:29.525Z,0.10
2022-09-23T16:15:57.754Z,0.10
2022-09-23T16:18:25.875Z,0.10
2022-09-23T16:20:54.844Z,0.00
2022-09-23T16:23:34.656Z,0.00
2022-09-23T16:26:08.438Z,0.20
2022-09-23T16:28:36.489Z,0.20
2022-09-23T16:31:04.687Z,0.10
2022-09-23T16:33:32.979Z,0.30
2022-09-23T16:36:02.054Z,0.30
2022-09-23T16:38:34.003Z,0.30
2022-09-23T16:41:03.063Z,0.10
2022-09-23T16:43:39.545Z,0.30
2022-09-23T16:46:09.438Z,0.20
2022-09-23T16:48:40.590Z,0.60
2022-09-23T16:51:09.186Z,0.20
2022-09-23T16:53:39.330Z,0.40
2022-09-23T17:01:23.938Z,0.50
2022-09-23T17:03:52.186Z,0.52
2022-09-23T17:06:21.068Z,0.38
2022-09-23T17:08:51.185Z,0.65
2022-09-23T17:11:19.499Z,1.00
2022-09-23T17:13:47.811Z,0.70
2022-09-23T17:16:25.599Z,0.38
2022-09-23T17:18:56.097Z,0.70
2022-09-23T17:21:26.822Z,0.70
2022-09-23T17:23:57.929Z,0.70
2022-09-23T17:26:27.570Z,0.50
2022-09-23T17:28:58.051Z,0.45
2022-09-23T17:31:26.716Z,0.47
2022-09-23T17:33:55.047Z,0.63
2022-09-23T17:36:25.238Z,0.70
2022-09-23T17:38:54.596Z,0.60
2022-09-23T17:41:28.681Z,0.80
2022-09-23T17:44:00.558Z,0.80
2022-09-23T17:46:33.516Z,0.95
2022-09-23T17:49:05.778Z,0.55
2022-09-23T17:51:35.447Z,0.82
2022-09-23T17:54:03.899Z,1.27
2022-09-23T17:56:36.928Z,0.90
2022-09-23T17:59:06.992Z,0.85
2022-09-23T18:01:41.484Z,0.80
2022-09-23T18:04:09.665Z,0.57
2022-09-23T18:07:48.955Z,0.70
2022-09-23T18:09:40.124Z,0.73
2022-09-23T18:12:09.754Z,0.70
2022-09-23T18:14:45.171Z,0.73
2022-09-23T18:17:30.927Z,0.90
2022-09-23T18:20:01.290Z,0.90
2022-09-23T18:22:30.645Z,0.98
2022-09-23T18:24:59.069Z,0.80
2022-09-23T18:27:29.650Z,0.65
2022-09-23T18:30:00.924Z,0.90
2022-09-23T18:32:34.761Z,0.80
2022-09-23T18:35:03.348Z,0.70
2022-09-23T18:37:33.386Z,0.70
2022-09-23T18:40:01.716Z,1.20
2022-09-23T18:42:34.635Z,1.02
2022-09-23T18:45:03.045Z,0.70
2022-09-23T18:47:48.652Z,1.02
2022-09-23T18:50:34.423Z,1.02
2022-09-23T18:53:34.951Z,1.02
2022-09-23T18:55:54.025Z,1.50
2022-09-23T18:58:23.699Z,1.00
2022-09-23T19:00:56.935Z,1.38
2022-09-23T19:03:26.299Z,0.90
2022-09-23T19:05:56.380Z,1.20
2022-09-23T19:08:30.682Z,1.35
2022-09-23T19:11:03.151Z,1.02
2022-09-23T19:13:35.743Z,0.98
2022-09-23T19:16:05.208Z,1.30
2022-09-23T19:18:35.182Z,1.30
2022-09-23T19:21:12.833Z,1.48
2022-09-23T19:23:48.880Z,1.10
2022-09-23T19:26:20.146Z,0.95
2022-09-23T19:28:55.416Z,0.85
2022-09-23T19:31:26.487Z,0.98
2022-09-23T19:33:56.822Z,0.93
2022-09-23T19:38:58.314Z,1.40
2022-09-23T19:41:28.323Z,1.05
2022-09-23T19:43:58.768Z,0.98
2022-09-23T19:46:37.448Z,0.80
2022-09-23T19:49:07.970Z,0.90
2022-09-23T19:51:38.824Z,1.20
2022-09-23T19:54:12.263Z,0.98
2022-09-23T19:56:41.332Z,1.15
2022-09-23T19:59:14.149Z,1.70
2022-09-23T20:01:47.644Z,1.10
2022-09-23T20:04:25.469Z,1.13
2022-09-23T20:06:54.313Z,1.50
2022-09-23T20:09:25.164Z,1.27
2022-09-23T20:12:00.398Z,1.30
2022-09-23T20:14:31.367Z,1.50
2022-09-23T20:17:23.436Z,0.85
2022-09-23T20:19:53.719Z,1.20
2022-09-23T20:22:32.924Z,1.17
2022-09-23T20:25:15.829Z,1.13
2022-09-23T20:27:43.036Z,0.80
2022-09-23T20:30:14.915Z,1.00
2022-09-23T20:32:44.899Z,1.13
2022-09-23T20:35:13.727Z,1.38
2022-09-23T20:37:45.228Z,1.38
2022-09-23T20:40:13.731Z,1.40
2022-09-23T20:42:46.165Z,1.23
2022-09-23T20:45:16.926Z,1.30
2022-09-23T20:47:45.440Z,1.27
2022-09-23T20:50:13.773Z,1.40
2022-09-23T20:52:42.369Z,1.67
2022-09-23T20:55:11.368Z,2.72
2022-09-23T20:57:39.926Z,1.55
2022-09-23T21:00:09.235Z,1.25
2022-09-23T21:02:38.779Z,1.87
2022-09-23T21:05:08.258Z,1.52
2022-09-23T21:07:37.880Z,1.67
2022-09-23T21:10:10.705Z,1.45
2022-09-23T21:12:38.907Z,1.42
2022-09-23T21:15:09.061Z,1.75
2022-09-23T21:20:11.330Z,1.90
2022-09-23T21:22:39.602Z,1.60
2022-09-23T21:28:09.453Z,1.55
2022-09-23T21:30:41.992Z,1.40
2022-09-23T21:33:17.555Z,1.40
2022-09-23T21:35:46.977Z,0.95
2022-09-23T21:38:15.450Z,1.20
2022-09-23T21:40:58.751Z,0.98
2022-09-23T21:43:28.433Z,1.23
2022-09-23T21:45:59.709Z,1.20
2022-09-23T21:48:31.225Z,1.50
2022-09-23T21:51:01.169Z,1.75
2022-09-23T21:53:34.628Z,1.50
2022-09-23T21:56:05.025Z,2.38
2022-09-23T21:58:48.549Z,2.10
2022-09-23T22:01:18.661Z,2.45
2022-09-23T22:06:21.671Z,1.92
2022-09-23T22:08:51.663Z,1.35
2022-09-23T22:11:38.723Z,1.38
2022-09-23T22:14:09.314Z,1.38
2022-09-23T22:16:40.653Z,1.23
2022-09-23T22:19:23.083Z,1.52
2022-09-23T22:21:52.681Z,1.33
2022-09-23T22:24:22.025Z,1.42
2022-09-23T22:26:50.583Z,1.63
2022-09-23T22:29:39.836Z,2.10
2022-09-23T22:33:16.622Z,2.63
2022-09-23T22:35:21.024Z,2.13
2022-09-23T22:37:55.351Z,1.98
2022-09-23T22:40:25.276Z,1.80
2022-09-23T22:42:56.305Z,2.10
2022-09-23T22:45:31.081Z,1.50
2022-09-23T22:48:11.388Z,2.00
2022-09-23T22:50:42.200Z,1.92
2022-09-23T22:53:13.075Z,2.28
2022-09-23T22:56:04.705Z,2.13
2022-09-23T22:58:34.085Z,1.65
2022-09-23T23:01:04.306Z,2.13
2022-09-23T23:06:23.565Z,1.55
2022-09-23T23:09:00.181Z,2.22
2022-09-23T23:11:31.305Z,1.98
2022-09-23T23:14:02.828Z,1.55
2022-09-23T23:16:40.337Z,1.85
2022-09-23T23:19:34.477Z,1.90
2022-09-23T23:22:15.274Z,1.90
2022-09-23T23:24:45.065Z,1.33
2022-09-23T23:27:15.361Z,2.25
2022-09-23T23:32:16.937Z,1.70
2022-09-23T23:34:47.347Z,1.85
2022-09-23T23:37:20.890Z,1.73
2022-09-23T23:39:51.544Z,1.83
2022-09-23T23:42:24.843Z,1.85
2022-09-23T23:44:56.748Z,2.20
2022-09-23T23:47:27.877Z,1.85
2022-09-23T23:49:58.558Z,1.85
2022-09-23T23:52:33.701Z,1.42
2022-09-23T23:55:06.804Z,1.98
2022-09-23T23:57:43.754Z,1.67
